Hammond, Oregon
Current Conditions -  °F | °C
As of 8:55 PM on Saturday 25 Oct 2014 (Local Time) from KAST Reporting Station
Light Rain Light Rain  
Wind Chill: 54°   Ceiling: 4300
Heat Index: 54°   Visibility: 10mi
Dew Point: 45°   Wind: 15mph
Humidity: 72%   Direction: 280°W
Pressure: 29.75"   Gusts: 23mph
Location:  46.2°N, 123.95°W
Report Text: KAST 260355Z AUTO 28013G20KT 10SM -RA FEW031 BKN043 OVC075 12/07 A2975 RMK AO2 PK WND 27030/0302 RAB52 SLP073 P0000 T01220072
Loading
Personal Weather Stations






























Interactive Weather Map
Tropical Storm Tracking
New forecast layout! Learn more

10-Day Weather Forecast

Advertisements
Track Severe Weather on mobile